Time;durP1;ratioP1;P1;durP2;ratioP2;P2;SDS_P1;SDS_P2;PMS_P1;PMS_P2;Temp;Humidity;BMP_temperature;BMP_pressure;BME280_temperature;BME280_humidity;BME280_pressure;Samples;Min_cycle;Max_cycle;Signal;HPM_P1;HPM_P2
2022/03/14 00:00:08;;;;;;;1.25;0.60;;;;;;;11.13;62.69;101672.59;5098825;27;96780;-36
2022/03/14 00:02:34;;;;;;;3.63;1.15;;;;;;;11.10;63.76;101662.78;5098033;27;99493;-36
2022/03/14 00:05:00;;;;;;;2.15;0.80;;;;;;;11.08;63.60;101664.69;5078763;27;101084;-36
2022/03/14 00:07:26;;;;;;;0.85;0.55;;;;;;;11.15;62.83;101678.81;5098058;27;96448;-36
2022/03/14 00:09:52;;;;;;;1.98;0.90;;;;;;;11.05;63.66;101673.00;5079863;27;96762;-36
2022/03/14 00:12:25;;;;;;;1.60;1.10;;;;;;;11.06;64.04;101688.31;5097645;27;99690;-36
2022/03/14 00:14:55;;;;;;;2.28;1.33;;;;;;;11.05;63.66;101686.53;5098329;27;97760;-36
2022/03/14 00:17:21;;;;;;;2.00;0.90;;;;;;;11.00;63.36;101681.34;5079646;27;96677;-36
2022/03/14 00:19:47;;;;;;;2.00;0.93;;;;;;;11.02;63.83;101682.16;5079668;27;96909;-36
2022/03/14 00:22:15;;;;;;;1.15;0.80;;;;;;;11.00;63.83;101678.63;5097970;27;97955;-36
2022/03/14 00:24:41;;;;;;;0.63;0.57;;;;;;;10.91;65.10;101672.81;5078528;27;100579;-37
2022/03/14 00:27:07;;;;;;;0.85;0.45;;;;;;;10.90;64.88;101673.78;5097848;27;96912;-36
2022/03/14 00:29:32;;;;;;;1.58;0.98;;;;;;;10.91;64.32;101684.50;5079645;27;96809;-36
2022/03/14 00:32:00;;;;;;;0.95;0.73;;;;;;;10.90;64.81;101690.91;5097362;27;98020;-36
2022/03/14 00:34:25;;;;;;;1.30;0.70;;;;;;;10.95;63.90;101696.97;5097796;27;97640;-36
2022/03/14 00:36:50;;;;;;;0.90;0.75;;;;;;;10.87;64.38;101690.16;5096929;27;117071;-36
2022/03/14 00:39:16;;;;;;;2.17;0.77;;;;;;;10.91;64.86;101702.63;5097955;27;96822;-36
2022/03/14 00:41:41;;;;;;;0.75;0.50;;;;;;;10.90;65.27;101699.03;5097342;27;99444;-36
2022/03/14 00:44:06;;;;;;;0.77;0.60;;;;;;;10.89;63.94;101702.69;5097177;27;115022;-37
2022/03/14 00:46:34;;;;;;;1.23;0.70;;;;;;;10.91;64.51;101714.34;5097638;27;96721;-36
2022/03/14 00:48:59;;;;;;;1.50;0.65;;;;;;;10.86;64.71;101708.25;5098209;27;96735;-36
2022/03/14 00:51:25;;;;;;;1.42;0.75;;;;;;;10.88;64.14;101714.50;5096881;27;110643;-36
2022/03/14 00:53:50;;;;;;;1.00;0.50;;;;;;;10.78;64.98;101705.06;5097327;27;99183;-36
2022/03/14 00:56:16;;;;;;;2.10;0.90;;;;;;;10.80;65.31;101714.00;5096574;27;110085;-36
2022/03/14 00:58:41;;;;;;;0.40;0.38;;;;;;;10.79;64.84;101723.06;5097968;27;96733;-36
2022/03/14 01:01:07;;;;;;;1.27;0.68;;;;;;;10.73;64.81;101709.84;5096398;27;126417;-36
2022/03/14 01:03:32;;;;;;;1.35;0.75;;;;;;;10.71;66.06;101717.16;5096917;27;99145;-36
2022/03/14 01:05:58;;;;;;;0.68;0.30;;;;;;;10.74;64.84;101726.00;5097323;27;96864;-36
2022/03/14 01:08:23;;;;;;;3.30;0.60;;;;;;;10.75;65.08;101732.28;5097600;27;96803;-36
2022/03/14 01:10:49;;;;;;;2.40;0.85;;;;;;;10.74;65.65;101741.38;5096667;27;99301;-36
2022/03/14 01:13:14;;;;;;;1.33;1.02;;;;;;;10.74;66.39;101742.25;5097390;27;99139;-36
2022/03/14 01:15:40;;;;;;;1.25;0.70;;;;;;;10.68;66.46;101749.78;5097479;27;96706;-36
2022/03/14 01:18:05;;;;;;;1.20;0.82;;;;;;;10.63;65.46;101736.50;5097637;27;96754;-37
2022/03/14 01:20:33;;;;;;;0.63;0.52;;;;;;;10.62;66.28;101732.88;5096576;27;101267;-36
2022/03/14 01:22:58;;;;;;;1.23;0.90;;;;;;;10.66;65.55;101743.59;5096824;27;98839;-36
2022/03/14 01:25:24;;;;;;;1.00;0.80;;;;;;;10.54;68.57;101740.50;5097149;27;96669;-36
2022/03/14 01:27:50;;;;;;;1.50;0.90;;;;;;;10.55;66.40;101741.38;5096947;27;96968;-36
2022/03/14 01:30:17;;;;;;;2.15;1.20;;;;;;;10.53;67.23;101744.16;5078224;27;100923;-36
2022/03/14 01:32:42;;;;;;;1.27;0.77;;;;;;;10.46;67.42;101742.69;5078109;27;101054;-36
2022/03/14 01:35:07;;;;;;;1.50;1.00;;;;;;;10.45;68.33;101748.19;5096841;27;96578;-36
2022/03/14 01:37:33;;;;;;;1.52;0.73;;;;;;;10.51;67.54;101756.91;5097393;27;96842;-36
2022/03/14 01:39:59;;;;;;;1.65;0.98;;;;;;;10.40;70.30;101745.69;5096760;27;97527;-36
2022/03/14 01:42:24;;;;;;;1.85;0.93;;;;;;;10.44;68.63;101758.16;5096571;27;99314;-36
2022/03/14 01:44:49;;;;;;;3.10;1.20;;;;;;;10.38;70.30;101770.13;5096077;27;100369;-37
2022/03/14 01:47:15;;;;;;;1.25;0.77;;;;;;;10.35;69.42;101761.28;5096866;27;96738;-36
2022/03/14 01:49:45;;;;;;;1.77;0.88;;;;;;;10.38;70.13;101780.09;5096642;27;98105;-36
2022/03/14 01:52:11;;;;;;;1.42;0.98;;;;;;;10.29;70.03;101775.09;5096447;27;97814;-36
2022/03/14 01:54:37;;;;;;;0.98;0.88;;;;;;;10.30;70.83;101788.56;5078143;27;96726;-37
2022/03/14 01:57:04;;;;;;;2.58;1.55;;;;;;;10.23;69.02;101778.94;5078296;27;96824;-37
2022/03/14 01:59:29;;;;;;;1.67;1.15;;;;;;;10.24;69.01;101796.91;5077687;27;102261;-36
2022/03/14 02:01:56;;;;;;;2.10;0.98;;;;;;;10.20;70.52;101789.88;5096729;27;97858;-37
2022/03/14 02:04:22;;;;;;;0.75;0.70;;;;;;;10.23;70.57;101800.59;5077526;27;96993;-36
2022/03/14 02:06:49;;;;;;;1.88;1.30;;;;;;;10.20;69.32;101793.50;5096575;27;96788;-36
2022/03/14 02:09:15;;;;;;;2.80;1.17;;;;;;;10.18;69.61;101799.91;5095600;27;97972;-36
2022/03/14 02:12:08;;;;;;;2.03;1.20;;;;;;;10.26;68.76;101804.97;5096103;27;99296;-36
2022/03/14 02:14:39;;;;;;;1.63;0.95;;;;;;;10.22;69.17;101812.34;5096604;27;96465;-36
2022/03/14 02:17:25;;;;;;;2.35;1.50;;;;;;;10.25;68.65;101830.28;5096597;27;96966;-36
2022/03/14 02:19:52;;;;;;;2.00;1.23;;;;;;;10.21;68.92;101830.44;5076874;27;101011;-36
2022/03/14 02:22:18;;;;;;;2.25;1.30;;;;;;;10.13;68.78;101818.16;5077506;27;100758;-36
2022/03/14 02:24:45;;;;;;;2.17;1.40;;;;;;;10.04;69.15;101821.31;5096143;27;96709;-36
2022/03/14 02:27:13;;;;;;;2.35;1.48;;;;;;;10.18;68.72;101838.69;5096824;27;96768;-36
2022/03/14 02:29:39;;;;;;;2.30;1.23;;;;;;;10.12;68.40;101838.94;5077262;27;101252;-36
2022/03/14 02:32:05;;;;;;;1.63;0.95;;;;;;;10.19;68.90;101842.28;5077079;27;100902;-37
2022/03/14 02:34:31;;;;;;;1.80;1.17;;;;;;;10.04;69.37;101833.00;5077191;27;96838;-36
2022/03/14 02:36:56;;;;;;;2.50;1.60;;;;;;;10.08;68.88;101849.97;5096096;27;96884;-36
2022/03/14 02:39:22;;;;;;;2.42;1.42;;;;;;;10.04;70.54;101846.53;5094836;27;127161;-36
2022/03/14 02:41:47;;;;;;;1.92;1.45;;;;;;;10.06;70.27;101858.19;5077273;27;101498;-37
2022/03/14 02:44:13;;;;;;;4.50;1.45;;;;;;;10.00;69.03;101847.59;5096024;27;96658;-36
2022/03/14 02:46:40;;;;;;;1.33;0.93;;;;;;;9.97;70.49;101845.03;5096718;27;96757;-36
2022/03/14 02:49:09;;;;;;;1.50;1.13;;;;;;;9.90;69.99;101841.72;5080757;27;101363;-36
2022/03/14 02:51:38;;;;;;;2.53;1.60;;;;;;;10.03;70.01;101854.72;5081115;27;101061;-36
2022/03/14 02:54:05;;;;;;;2.00;1.52;;;;;;;9.97;70.29;101856.75;5081055;27;96564;-36
2022/03/14 02:56:30;;;;;;;2.30;1.10;;;;;;;9.96;70.25;101852.28;5080930;27;96915;-36
2022/03/14 02:58:56;;;;;;;2.95;1.23;;;;;;;9.99;69.56;101868.41;5098991;27;97387;-36
2022/03/14 03:01:21;;;;;;;2.17;1.63;;;;;;;9.97;70.24;101874.81;5099461;27;100335;-36
2022/03/14 03:03:48;;;;;;;3.22;1.70;;;;;;;9.96;70.35;101875.75;5099027;27;96552;-36
2022/03/14 03:06:15;;;;;;;4.60;1.90;;;;;;;9.83;70.66;101866.41;5080859;27;96792;-36
2022/03/14 03:08:44;;;;;;;1.98;1.58;;;;;;;9.88;70.76;101889.59;5080580;27;100887;-37
2022/03/14 03:11:11;;;;;;;3.88;2.40;;;;;;;9.87;70.95;101889.69;5080203;27;100890;-37
2022/03/14 03:13:37;;;;;;;2.40;1.73;;;;;;;9.79;73.16;101884.56;5080612;27;96717;-36
2022/03/14 03:16:04;;;;;;;2.58;1.75;;;;;;;9.70;71.79;101883.16;5099788;27;96810;-36
2022/03/14 03:18:29;;;;;;;2.15;1.45;;;;;;;9.76;73.15;101903.66;5099005;27;97881;-36
2022/03/14 03:20:54;;;;;;;2.38;1.50;;;;;;;9.70;73.28;101893.06;5098607;27;116328;-36
2022/03/14 03:23:20;;;;;;;3.60;1.77;;;;;;;9.72;74.36;101904.72;5098953;27;96573;-36
2022/03/14 03:25:45;;;;;;;2.80;1.83;;;;;;;9.68;74.56;101905.81;5099000;27;96828;-36
2022/03/14 03:28:10;;;;;;;3.40;2.22;;;;;;;9.63;73.57;101905.09;5098903;27;97869;-36
2022/03/14 03:30:36;;;;;;;3.53;2.28;;;;;;;9.65;72.54;101914.91;5097576;27;128117;-36
2022/03/14 03:33:01;;;;;;;5.15;2.38;;;;;;;9.68;72.73;101925.63;5098928;27;96546;-36
2022/03/14 03:35:26;;;;;;;3.25;2.03;;;;;;;9.57;73.43;101925.16;5099036;27;96793;-36
2022/03/14 03:37:52;;;;;;;3.38;2.25;;;;;;;9.59;74.18;101930.53;5098759;27;97705;-36
2022/03/14 03:40:17;;;;;;;3.00;1.95;;;;;;;9.62;74.27;101952.91;5079998;27;105791;-36
2022/03/14 03:42:43;;;;;;;2.78;1.98;;;;;;;9.65;74.68;101949.19;5099129;27;96575;-36
2022/03/14 03:45:09;;;;;;;3.65;1.90;;;;;;;9.64;74.61;101952.84;5098735;27;96771;-36
2022/03/14 03:47:34;;;;;;;6.13;2.75;;;;;;;9.65;73.26;101969.00;5079501;27;100846;-36
2022/03/14 03:50:00;;;;;;;5.20;2.38;;;;;;;9.56;74.91;101964.84;5099040;27;97110;-36
2022/03/14 03:52:25;;;;;;;3.75;2.20;;;;;;;9.58;74.52;101962.06;5098396;27;96558;-36
2022/03/14 03:54:50;;;;;;;3.50;2.35;;;;;;;9.67;74.58;101975.25;5098617;27;96800;-36
2022/03/14 03:57:16;;;;;;;3.17;2.22;;;;;;;9.74;73.77;101981.28;5097495;27;123879;-37
2022/03/14 03:59:41;;;;;;;4.50;2.50;;;;;;;9.68;73.88;101976.16;5097314;27;126397;-36
2022/03/14 04:02:08;;;;;;;3.70;2.28;;;;;;;9.62;73.99;101970.97;5098741;27;96635;-36
2022/03/14 04:04:37;;;;;;;4.50;2.50;;;;;;;9.63;74.34;101988.94;5098418;27;96744;-35
2022/03/14 04:07:03;;;;;;;5.55;2.38;;;;;;;9.69;72.97;101988.72;5079529;27;99408;-36
2022/03/14 04:09:29;;;;;;;3.25;1.90;;;;;;;9.78;73.88;102005.47;5079596;27;101303;-36
2022/03/14 04:11:54;;;;;;;4.25;2.45;;;;;;;9.75;73.12;102004.72;5097868;27;96509;-36
2022/03/14 04:14:21;;;;;;;2.80;2.28;;;;;;;9.73;74.35;102012.88;5097803;27;101753;-37
2022/03/14 04:16:46;;;;;;;3.72;2.10;;;;;;;9.63;74.67;102013.28;5079384;27;98850;-36
2022/03/14 04:19:12;;;;;;;4.07;2.33;;;;;;;9.64;74.13;102024.06;5097841;27;98887;-36
2022/03/14 04:21:38;;;;;;;2.72;1.77;;;;;;;9.71;73.88;102043.66;5098360;27;96592;-36
2022/03/14 04:24:06;;;;;;;4.70;2.67;;;;;;;9.72;74.16;102054.41;5098376;27;96628;-36
2022/03/14 04:26:32;;;;;;;5.97;2.50;;;;;;;9.67;73.71;102044.69;5079073;27;100865;-36
2022/03/14 04:28:57;;;;;;;5.00;2.95;;;;;;;9.55;73.53;102043.34;5098451;27;97357;-36
2022/03/14 04:31:22;;;;;;;5.00;3.10;;;;;;;9.60;74.05;102071.09;5097406;27;116906;-36
2022/03/14 04:33:48;;;;;;;4.00;2.20;;;;;;;9.54;74.46;102074.06;5098291;27;96762;-36
2022/03/14 04:36:14;;;;;;;6.63;2.40;;;;;;;9.59;75.01;102069.34;5097194;27;99298;-36
2022/03/14 04:38:39;;;;;;;4.68;2.38;;;;;;;9.62;73.84;102061.09;5079055;27;100416;-36
2022/03/14 04:41:04;;;;;;;5.03;2.45;;;;;;;9.65;75.26;102082.63;5097279;27;104930;-36
2022/03/14 04:43:30;;;;;;;3.38;2.45;;;;;;;9.52;73.99;102074.09;5097825;27;96810;-36
2022/03/14 04:45:55;;;;;;;5.40;2.72;;;;;;;9.55;74.55;102084.78;5097416;27;99049;-36
2022/03/14 04:48:20;;;;;;;3.95;2.17;;;;;;;9.61;75.19;102099.06;5097597;27;97971;-36
2022/03/14 04:50:46;;;;;;;4.63;2.63;;;;;;;9.56;74.50;102101.94;5096990;27;116651;-36
2022/03/14 04:53:11;;;;;;;4.22;2.20;;;;;;;9.49;74.99;102103.09;5098275;27;96750;-36
2022/03/14 04:55:37;;;;;;;6.07;2.65;;;;;;;9.39;74.25;102110.66;5097392;27;97902;-36
2022/03/14 04:58:03;;;;;;;3.50;2.30;;;;;;;9.30;74.70;102117.28;5097283;27;99541;-36
2022/03/14 05:00:29;;;;;;;4.65;2.47;;;;;;;9.29;74.59;102117.31;5078457;27;96583;-37
2022/03/14 05:03:05;;;;;;;3.53;2.15;;;;;;;9.22;75.18;102113.94;5079009;27;96823;-36
2022/03/14 05:05:30;;;;;;;4.88;2.05;;;;;;;9.25;75.05;102115.69;5078241;27;100770;-36
2022/03/14 05:07:56;;;;;;;5.32;2.33;;;;;;;9.28;74.58;102120.97;5097384;27;97685;-36
2022/03/14 05:10:22;;;;;;;4.15;2.58;;;;;;;9.31;74.40;102134.38;5096712;27;96754;-36
2022/03/14 05:12:47;;;;;;;3.72;2.20;;;;;;;9.13;74.85;102123.28;5097467;27;96779;-36
2022/03/14 05:15:15;;;;;;;3.75;2.17;;;;;;;9.12;74.36;102121.50;5096295;27;126468;-36
2022/03/14 05:17:40;;;;;;;3.88;1.85;;;;;;;9.11;74.66;102118.88;5078905;27;100893;-36
2022/03/14 05:20:06;;;;;;;7.55;2.58;;;;;;;9.18;74.69;102131.25;5097439;27;96501;-36
2022/03/14 05:22:32;;;;;;;3.03;1.75;;;;;;;9.20;75.11;102139.28;5097308;27;96745;-36
2022/03/14 05:24:57;;;;;;;5.25;2.15;;;;;;;9.19;74.96;102151.91;5077586;27;100795;-36
2022/03/14 05:27:23;;;;;;;3.42;2.20;;;;;;;9.20;74.30;102147.38;5097060;27;97882;-36
2022/03/14 05:29:49;;;;;;;3.75;1.92;;;;;;;9.11;74.51;102151.31;5097360;27;96600;-36
2022/03/14 05:32:14;;;;;;;3.42;2.10;;;;;;;9.20;74.45;102169.00;5078410;27;96773;-36
2022/03/14 05:34:39;;;;;;;4.07;1.55;;;;;;;9.11;75.06;102165.72;5095914;27;126609;-36
2022/03/14 05:37:05;;;;;;;3.92;1.77;;;;;;;9.17;75.50;102178.13;5095806;27;126319;-36
2022/03/14 05:39:30;;;;;;;2.85;1.98;;;;;;;9.18;74.68;102166.38;5096827;27;96710;-36
2022/03/14 05:41:55;;;;;;;3.45;1.98;;;;;;;9.13;74.95;102166.53;5096482;27;116458;-36
2022/03/14 05:44:21;;;;;;;2.83;1.80;;;;;;;9.18;75.80;102171.78;5095857;27;122476;-36
2022/03/14 05:46:46;;;;;;;6.05;2.30;;;;;;;9.14;73.78;102159.31;5096552;27;99341;-36
2022/03/14 05:49:11;;;;;;;3.00;1.65;;;;;;;9.14;74.44;102176.41;5096323;27;96668;-36
2022/03/14 05:51:38;;;;;;;3.60;2.22;;;;;;;9.06;75.49;102183.03;5096919;27;96765;-36
2022/03/14 05:54:04;;;;;;;3.30;2.00;;;;;;;9.01;75.83;102176.88;5096303;27;99338;-36
2022/03/14 05:56:30;;;;;;;2.70;1.67;;;;;;;9.09;75.96;102191.03;5077846;27;101200;-36
2022/03/14 05:58:55;;;;;;;4.03;2.03;;;;;;;9.06;74.77;102183.91;5096879;27;96466;-36
2022/03/14 06:01:21;;;;;;;3.22;1.52;;;;;;;9.10;75.38;102200.88;5096775;27;96764;-36
2022/03/14 06:03:48;;;;;;;3.78;2.30;;;;;;;9.07;76.07;102201.88;5095654;27;99277;-36
2022/03/14 06:06:13;;;;;;;2.83;2.08;;;;;;;9.07;75.26;102203.69;5060979;27;100934;-36
2022/03/14 06:08:39;;;;;;;3.10;1.90;;;;;;;9.08;76.05;102214.47;5095630;27;109781;-36
2022/03/14 06:11:08;;;;;;;4.38;2.28;;;;;;;9.09;76.02;102197.31;5095812;27;116487;-36
2022/03/14 06:13:34;;;;;;;3.28;1.75;;;;;;;9.17;75.63;102224.06;5095528;27;99193;-36
2022/03/14 06:15:59;;;;;;;2.92;1.67;;;;;;;9.13;75.91;102212.50;5077796;27;100467;-36
2022/03/14 06:18:24;;;;;;;2.75;1.90;;;;;;;9.13;75.67;102227.84;5095844;27;110382;-36
2022/03/14 06:20:50;;;;;;;4.30;2.10;;;;;;;9.09;75.55;102220.75;5095496;27;96871;-36
2022/03/14 06:23:16;;;;;;;2.60;1.63;;;;;;;9.20;75.96;102234.81;5094723;27;125067;-36
2022/03/14 06:25:42;;;;;;;2.95;1.92;;;;;;;9.18;75.44;102236.66;5096003;27;99311;-36
2022/03/14 06:28:08;;;;;;;3.47;2.30;;;;;;;9.19;74.90;102242.94;5096472;27;96505;-36
2022/03/14 06:30:34;;;;;;;4.25;2.35;;;;;;;9.18;74.47;102258.28;5096599;27;96747;-36
2022/03/14 06:32:59;;;;;;;3.90;2.53;;;;;;;9.06;74.54;102246.06;5095774;27;99498;-36
2022/03/14 06:35:24;;;;;;;4.15;2.80;;;;;;;9.00;74.90;102243.56;5095756;27;102778;-36
2022/03/14 06:37:50;;;;;;;4.35;2.33;;;;;;;9.06;75.58;102264.13;5094994;27;96658;-36
2022/03/14 06:40:15;;;;;;;6.65;3.22;;;;;;;9.00;74.65;102259.78;5096356;27;96692;-36
2022/03/14 06:42:48;;;;;;;5.55;2.90;;;;;;;8.93;76.36;102264.47;5095297;27;114970;-36
2022/03/14 06:45:15;;;;;;;3.67;2.20;;;;;;;8.98;75.24;102268.84;5095725;27;99324;-36
2022/03/14 06:47:41;;;;;;;4.38;3.05;;;;;;;9.03;75.43;102283.09;5077524;27;96610;-36
2022/03/14 06:50:08;;;;;;;4.00;2.63;;;;;;;8.99;75.53;102287.75;5095180;27;116833;-36
2022/03/14 06:52:34;;;;;;;3.80;2.17;;;;;;;8.98;75.33;102287.78;5077055;27;101293;-36
2022/03/14 06:54:59;;;;;;;6.10;2.85;;;;;;;8.97;74.55;102286.91;5095852;27;99221;-36
2022/03/14 06:57:25;;;;;;;3.03;1.98;;;;;;;8.98;76.29;102304.00;5096153;27;96626;-36
2022/03/14 06:59:50;;;;;;;4.32;2.83;;;;;;;8.91;75.20;102287.09;5095502;27;109374;-36
2022/03/14 07:02:15;;;;;;;5.75;3.13;;;;;;;8.95;75.53;102298.69;5094098;27;127323;-35
2022/03/14 07:04:40;;;;;;;4.28;3.15;;;;;;;8.97;75.59;102302.25;5093531;27;129130;-36
2022/03/14 07:07:06;;;;;;;5.53;3.08;;;;;;;8.91;75.51;102296.09;5095591;27;96673;-36
2022/03/14 07:09:32;;;;;;;5.32;3.00;;;;;;;8.95;75.67;102315.78;5095776;27;96788;-36
2022/03/14 07:11:58;;;;;;;5.32;3.10;;;;;;;8.90;76.29;102302.41;5076745;27;101403;-36
2022/03/14 07:14:23;;;;;;;4.50;2.78;;;;;;;9.06;75.16;102318.16;5094955;27;115751;-36
2022/03/14 07:16:49;;;;;;;6.60;3.88;;;;;;;9.05;75.04;102316.38;5076332;27;116575;-36
2022/03/14 07:19:15;;;;;;;4.50;2.05;;;;;;;9.06;75.73;102320.88;5077528;27;96773;-36
2022/03/14 07:21:40;;;;;;;4.80;2.90;;;;;;;9.10;75.65;102323.41;5095312;27;97519;-36
2022/03/14 07:24:07;;;;;;;5.90;3.25;;;;;;;9.07;75.79;102325.34;5095339;27;97438;-36
2022/03/14 07:26:32;;;;;;;3.67;2.15;;;;;;;9.11;76.03;102332.41;5076345;27;96645;-36
2022/03/14 07:28:57;;;;;;;7.10;2.38;;;;;;;9.12;75.92;102324.25;5077024;27;96749;-36
2022/03/14 07:31:24;;;;;;;3.15;2.38;;;;;;;9.12;75.51;102328.78;5095093;27;99547;-36
2022/03/14 07:33:50;;;;;;;7.25;3.30;;;;;;;9.15;74.77;102331.38;5079076;27;100964;-36
2022/03/14 07:36:15;;;;;;;10.05;5.00;;;;;;;9.11;74.87;102329.72;5098760;27;97536;-36
2022/03/14 07:38:40;;;;;;;8.65;4.38;;;;;;;9.14;76.52;102332.31;5098789;27;96794;-36
2022/03/14 07:41:08;;;;;;;7.50;3.47;;;;;;;9.22;75.20;102354.56;5098781;27;97862;-36
2022/03/14 07:43:33;;;;;;;4.53;2.92;;;;;;;9.12;75.03;102340.47;5080276;27;100926;-36
2022/03/14 07:45:59;;;;;;;3.72;2.50;;;;;;;9.14;75.75;102349.41;5098330;27;109393;-36
2022/03/14 07:48:24;;;;;;;5.20;2.92;;;;;;;9.09;75.17;102343.28;5098583;27;97847;-36
2022/03/14 07:50:50;;;;;;;5.25;3.00;;;;;;;9.13;75.87;102357.59;5097912;27;97251;-36
2022/03/14 07:53:15;;;;;;;3.40;2.22;;;;;;;9.18;75.32;102363.72;5098467;27;97874;-36
2022/03/14 07:55:40;;;;;;;4.20;2.75;;;;;;;9.12;76.86;102364.78;5098891;27;96602;-36
2022/03/14 07:58:06;;;;;;;13.80;3.17;;;;;;;9.13;75.71;102369.28;5098472;27;96883;-36
2022/03/14 08:00:31;;;;;;;6.25;3.10;;;;;;;9.11;75.57;102370.25;5098134;27;99211;-36
2022/03/14 08:02:57;;;;;;;4.40;2.50;;;;;;;9.12;75.95;102355.81;5079794;27;99822;-36
2022/03/14 08:05:26;;;;;;;4.60;2.72;;;;;;;9.20;75.94;102366.38;5098137;27;97118;-36
2022/03/14 08:07:53;;;;;;;6.43;3.72;;;;;;;9.22;76.55;102378.91;5080538;27;96852;-36
2022/03/14 08:10:19;;;;;;;4.25;3.28;;;;;;;9.19;75.92;102391.66;5079528;27;101175;-36
2022/03/14 08:12:54;;;;;;;3.75;2.45;;;;;;;9.25;76.26;102392.34;5098124;27;97788;-36
2022/03/14 08:15:33;;;;;;;5.75;2.90;;;;;;;9.17;76.17;102391.69;5079182;27;96630;-36
2022/03/14 08:18:02;;;;;;;5.43;2.88;;;;;;;9.25;76.02;102405.00;5098478;27;96639;-36
2022/03/14 08:20:29;;;;;;;4.65;2.55;;;;;;;9.22;75.77;102405.94;5079282;27;100918;-36
2022/03/14 08:22:57;;;;;;;4.95;2.97;;;;;;;9.20;75.90;102413.25;5079257;27;101138;-36
2022/03/14 08:25:22;;;;;;;6.07;2.72;;;;;;;9.29;75.88;102430.97;5079707;27;96461;-36
2022/03/14 08:27:48;;;;;;;3.92;2.75;;;;;;;9.24;76.21;102419.41;5097324;27;117201;-36
2022/03/14 08:30:13;;;;;;;9.23;3.65;;;;;;;9.29;74.87;102434.56;5097902;27;97962;-36
2022/03/14 08:32:39;;;;;;;3.63;2.55;;;;;;;9.26;76.13;102436.50;5098088;27;97713;-35
2022/03/14 08:35:09;;;;;;;5.90;2.20;;;;;;;9.31;76.06;102454.34;5098273;27;96514;-36
2022/03/14 08:37:41;;;;;;;5.53;3.15;;;;;;;9.31;76.15;102445.34;5079472;27;96721;-36
2022/03/14 08:40:08;;;;;;;;;;;;;;;9.24;76.38;102458.16;5079071;27;100809;-36
2022/03/14 08:42:34;;;;;;;5.38;3.10;;;;;;;9.13;76.18;102452.19;5079162;27;100867;-36
2022/03/14 08:45:00;;;;;;;4.18;2.53;;;;;;;9.11;76.68;102448.66;5096729;27;96607;-36
2022/03/14 08:47:25;;;;;;;3.38;2.38;;;;;;;9.13;75.87;102446.78;5098005;27;96798;-36
2022/03/14 08:49:51;;;;;;;6.95;2.28;;;;;;;9.16;75.35;102456.63;5097787;27;98050;-36
2022/03/14 08:52:16;;;;;;;5.22;2.65;;;;;;;9.28;75.48;102475.19;5078845;27;100931;-36
2022/03/14 08:54:42;;;;;;;2.83;2.05;;;;;;;9.30;76.13;102460.69;5097955;27;96763;-36
2022/03/14 08:57:07;;;;;;;4.53;2.35;;;;;;;9.32;75.81;102483.16;5097334;27;115850;-36
2022/03/14 08:59:32;;;;;;;4.40;2.72;;;;;;;9.30;75.24;102466.09;5096907;27;99259;-36
2022/03/14 09:01:57;;;;;;;4.38;2.38;;;;;;;9.27;75.55;102474.31;5096567;27;125891;-36
2022/03/14 09:04:23;;;;;;;5.55;3.13;;;;;;;9.32;75.44;102476.88;5076822;27;117113;-35
2022/03/14 09:06:48;;;;;;;4.95;3.28;;;;;;;9.39;74.75;102488.38;5097812;27;96736;-36
2022/03/14 09:09:14;;;;;;;5.65;2.72;;;;;;;9.40;75.75;102490.16;5097302;27;97986;-36
2022/03/14 09:11:39;;;;;;;8.68;3.67;;;;;;;9.35;74.78;102490.28;5097209;27;99755;-36
2022/03/14 09:14:05;;;;;;;10.20;3.30;;;;;;;9.40;75.31;102491.03;5096998;27;96614;-36
2022/03/14 09:16:31;;;;;;;3.78;2.75;;;;;;;9.45;75.58;102501.72;5097786;27;96768;-36
2022/03/14 09:18:56;;;;;;;6.65;3.45;;;;;;;9.42;75.51;102504.53;5078472;27;101036;-36
2022/03/14 09:21:23;;;;;;;5.07;3.30;;;;;;;9.46;76.11;102507.09;5097461;27;97320;-36
2022/03/14 09:23:49;;;;;;;6.82;2.88;;;;;;;9.44;75.42;102497.22;5097391;27;96537;-36
2022/03/14 09:26:14;;;;;;;5.32;3.03;;;;;;;9.49;74.95;102506.13;5078751;27;96759;-36
2022/03/14 09:28:44;;;;;;;6.80;3.88;;;;;;;9.50;74.73;102510.56;5095348;27;126596;-36
2022/03/14 09:31:12;;;;;;;6.00;3.25;;;;;;;9.48;75.08;102502.50;5096833;27;97911;-36
2022/03/14 09:33:38;;;;;;;8.30;3.90;;;;;;;9.61;75.39;102504.84;5078503;27;96660;-36
2022/03/14 09:36:03;;;;;;;7.03;4.10;;;;;;;9.61;74.38;102511.16;5097178;27;96831;-36
2022/03/14 09:38:29;;;;;;;5.85;3.25;;;;;;;9.53;75.39;102507.78;5096728;27;96771;-36
2022/03/14 09:40:56;;;;;;;6.97;3.10;;;;;;;9.63;75.79;102513.78;5096584;27;99633;-36
2022/03/14 09:43:25;;;;;;;6.03;2.83;;;;;;;9.74;75.35;102523.34;5078178;27;96694;-36
2022/03/14 09:45:51;;;;;;;6.68;3.20;;;;;;;9.70;74.96;102516.28;5078943;27;96895;-36
2022/03/14 09:48:17;;;;;;;7.30;2.85;;;;;;;9.72;74.87;102525.19;5078006;27;100834;-36
2022/03/14 09:50:44;;;;;;;7.35;3.08;;;;;;;9.76;74.31;102518.78;5060968;27;100727;-36
2022/03/14 09:53:14;;;;;;;3.90;2.80;;;;;;;9.78;74.34;102516.03;5077708;27;96753;-36
2022/03/14 09:55:43;;;;;;;6.85;2.83;;;;;;;9.85;74.40;102527.56;5077998;27;96691;-36
2022/03/14 09:58:14;;;;;;;3.85;2.55;;;;;;;9.96;73.97;102539.81;5077763;27;101291;-36
2022/03/14 10:00:40;;;;;;;9.38;2.80;;;;;;;10.04;74.92;102535.97;5096660;27;97362;-36
2022/03/14 10:03:06;;;;;;;5.03;2.63;;;;;;;10.16;74.94;102541.00;5077807;27;96686;-36
2022/03/14 10:05:32;;;;;;;9.35;2.97;;;;;;;10.26;73.96;102557.81;5074086;27;96876;-36
2022/03/14 10:07:57;;;;;;;5.88;3.17;;;;;;;10.25;73.86;102550.63;5075751;27;97868;-36
2022/03/14 10:10:23;;;;;;;11.10;3.65;;;;;;;10.32;73.70;102557.63;5076026;27;96963;-36
2022/03/14 10:12:58;;;;;;;5.80;2.90;;;;;;;10.34;73.82;102555.75;5076207;27;96635;-36
2022/03/14 10:15:25;;;;;;;7.20;3.15;;;;;;;10.30;73.63;102554.13;5076268;27;96510;-36
2022/03/14 10:17:55;;;;;;;6.00;2.85;;;;;;;10.31;74.41;102561.28;5056801;27;100781;-36
2022/03/14 10:20:22;;;;;;;5.75;3.33;;;;;;;10.29;74.81;102552.31;5074009;27;100712;-36
2022/03/14 10:22:48;;;;;;;11.15;3.70;;;;;;;10.39;73.21;102557.41;5075516;27;96677;-36
2022/03/14 10:25:20;;;;;;;8.05;4.43;;;;;;;10.37;73.18;102564.69;5057300;27;96854;-36
2022/03/14 10:27:47;;;;;;;;;;;;;;;10.49;73.62;102576.06;5076033;27;97989;-36
2022/03/14 10:30:32;;;;;;;5.60;3.22;;;;;;;10.48;73.13;102568.84;5075333;27;99687;-36
2022/03/14 10:33:23;;;;;;;10.40;4.18;;;;;;;10.55;73.61;102579.44;5074442;27;96564;-36
2022/03/14 10:35:48;;;;;;;7.18;4.53;;;;;;;10.62;72.84;102585.53;5074766;27;96870;-36
2022/03/14 10:38:16;;;;;;;5.28;3.13;;;;;;;10.60;73.07;102591.00;5073927;27;98047;-36
2022/03/14 10:40:43;;;;;;;8.18;2.88;;;;;;;10.58;73.23;102590.19;5075358;27;97960;-36
2022/03/14 10:43:30;;;;;;;4.38;3.05;;;;;;;10.61;73.57;102611.75;5073729;27;96728;-36
2022/03/14 10:45:57;;;;;;;9.18;4.55;;;;;;;10.60;72.64;102604.53;5073977;27;96786;-36
2022/03/14 10:48:38;;;;;;;6.38;3.45;;;;;;;10.47;73.37;102600.50;5073681;27;100842;-35
2022/03/14 10:51:06;;;;;;;5.70;3.35;;;;;;;10.49;73.50;102609.47;5073830;27;100884;-36
2022/03/14 10:53:35;;;;;;;3.80;2.38;;;;;;;10.52;73.31;102600.34;5075335;27;96514;-36
2022/03/14 10:56:01;;;;;;;6.28;3.47;;;;;;;10.57;73.39;102601.94;5075316;27;96784;-37
2022/03/14 10:58:30;;;;;;;5.22;3.17;;;;;;;10.76;72.81;102625.72;5073691;27;100792;-36
2022/03/14 11:00:57;;;;;;;7.13;3.42;;;;;;;10.68;73.40;102614.25;5073976;27;100824;-36
2022/03/14 11:03:30;;;;;;;5.68;3.53;;;;;;;10.68;73.14;102628.72;5073689;27;96898;-36
2022/03/14 11:05:58;;;;;;;7.82;3.47;;;;;;;10.62;73.85;102613.50;5094198;27;96807;-36
2022/03/14 11:08:31;;;;;;;7.35;2.92;;;;;;;10.60;73.15;102626.22;5061263;27;100889;-36
2022/03/14 11:10:58;;;;;;;8.00;3.05;;;;;;;10.62;73.33;102651.47;5098945;27;98752;-36
2022/03/14 11:13:24;;;;;;;5.88;3.45;;;;;;;10.54;74.01;102637.28;5063890;27;96634;-36
2022/03/14 11:15:50;;;;;;;5.00;2.58;;;;;;;10.59;73.27;102656.97;5099618;27;96733;-36
2022/03/14 11:18:17;;;;;;;5.13;3.10;;;;;;;10.56;73.79;102648.09;5098774;27;99182;-36
2022/03/14 11:20:43;;;;;;;3.70;2.53;;;;;;;10.61;73.16;102649.69;5080456;27;100747;-36
2022/03/14 11:23:09;;;;;;;10.02;3.28;;;;;;;10.58;72.68;102649.81;5098866;27;96538;-36
2022/03/14 11:25:37;;;;;;;8.82;3.17;;;;;;;10.68;73.06;102642.25;5080968;27;96794;-36